Terminal Aerodrome Forecast
Issued by NWS

Home | Current Version | Previous Version | Graphics & Text | Print | Product List | Glossary On
Versions: 1 2 3 4 5 6 7 8 9 10 11 12 13 14 15 16 17 18 19 20
000
FTUS42 KMHX 250200 AAA
TAFOAJ
TAF AMD
KOAJ 250241Z 2503/2524 20007KT P6SM SCT040 BKN080
     FM250730 21005KT 2SM BR VCSH OVC010
     FM251400 26007KT 5SM BR VCSH OVC015
     FM251700 29007KT 5SM BR VCSH OVC025
      AMD LTD TO CLD VIS AND WIND=

USA.gov is the U.S. government's official web portal to all federal, state and local government web resources and services.